Portada
METAR-TAF:

METAR-TAF

Aeroports :

Carolina, Maranhão, Brasil

latitud: 07-19S, longitud: 047-28W, altitud: 183 m

Observació

L'informe es va fer fa 1 hora i 3 minuts, a les 22:00 UTC
Vent 3 kt del Sud-Oest
Temperatura 28°C
Humitat 84%
Pressió 1008 hPa
Visibilitat 10 km o més
sense núvols per sota de 1500 mi sense presència de cumulonimbus.

METAR: SBCI 132200Z AUTO 22003KT CAVOK 28/25 Q1008

Hora: 20:03 (23:03 UTC)


TAF: manca

Observacions i pronòstics meteorològics de més de 4000 aeroports (METAR i TAF).

Les estacions disponibles són els punts grocs i vermells al mapa.

Posi el ratolí al punt desitjat per veure el nom de l'estació.

Feu clic per veure les observacions i els pronòstics meteorològics.

Per canviar el mapa: feu clic els botons verds amb una creu de color negre per apropar; al botó verd amb un guió per allunyar la imatge; o en les fletxes verdes per a mapes adjacents.


METAR-TAF: